メインページ
METAR-TAF:

METAR-TAF

空港 :

メンドーサ, アルゼンチン

緯度: 32-50S, 経度: 068-47W, 海抜: 705m

現時点の気象観測

当レポートは36分前の21:00(UTC)に作成
東/南東の風 2kt
気温 21°C
湿度 60%
気圧 1011 hPa
視程10km以上
高度4500ftの雲はほとんどない
高度5000ftの雲は散在している

METAR: SAME 232100Z 11002KT 9999 FEW045 SCT050 21/13 Q1011

時間: 18:36 (21:36 UTC)

予報

当レポートは4時間36分前の17:00(UTC)に作成
予報は23日の 18時(UTC)から 24日の 18時(UTC)まで有効
変向風 3kt
視程10km以上
高度4000ftの雲はほとんどない

TAF: SAME 231700Z 2318/2418 VRB03KT 9999 FEW040 TX23/2320Z TN12/2410Z

4,000以上の空港の気象観測と天気予報(METAR報とTAF報)

利用可能な観測所は地図上に黄色い丸と赤い丸で示す。

丸の上にカーソルを重ねると観測所名を参照できる。

次にクリックすると気象観測と天気予報を参照できる。

マップの切り替え:黒色「×」印の緑ボタンをクリックして拡大、「-」印の緑ボタンをクリックして縮小、緑色の三角印をクリックして隣りの地図に切り替え


METAR-TAF: